createdAt,value
2017-05-06T00:01:05.721Z,89.50
2017-05-06T00:02:07.109Z,89.50
2017-05-06T00:03:28.579Z,88.92
2017-05-06T00:04:29.957Z,88.92
2017-05-06T00:05:51.448Z,89.31
2017-05-06T00:06:52.838Z,88.64
2017-05-06T00:08:14.297Z,88.64
2017-05-06T00:09:15.690Z,89.31
2017-05-06T00:10:37.150Z,89.02
2017-05-06T00:11:38.529Z,89.31
2017-05-06T00:13:00.025Z,88.92
2017-05-06T00:14:01.412Z,89.21
2017-05-06T00:15:22.867Z,89.12
2017-05-06T00:16:24.254Z,88.92
2017-05-06T00:17:45.715Z,88.92
2017-05-06T00:18:47.096Z,88.92
2017-05-06T00:20:08.589Z,89.06
2017-05-06T00:21:09.977Z,89.12
2017-05-06T00:22:31.443Z,89.12
2017-05-06T00:23:32.827Z,89.12
2017-05-06T00:24:54.297Z,89.02
2017-05-06T00:25:55.682Z,88.78
2017-05-06T00:27:17.177Z,89.35
2017-05-06T00:28:18.562Z,89.21
2017-05-06T00:29:40.028Z,88.59
2017-05-06T00:30:41.413Z,88.73
2017-05-06T00:32:02.881Z,88.54
2017-05-06T00:33:04.267Z,89.31
2017-05-06T00:34:25.769Z,89.21
2017-05-06T00:35:27.158Z,89.02
2017-05-06T00:36:48.620Z,88.59
2017-05-06T00:37:50.005Z,88.59
2017-05-06T00:39:11.470Z,88.68
2017-05-06T00:40:12.859Z,88.78
2017-05-06T00:41:34.353Z,88.78
2017-05-06T00:42:35.737Z,88.68
2017-05-06T00:43:57.200Z,88.59
2017-05-06T00:44:58.580Z,88.59
2017-05-06T00:46:20.051Z,88.78
2017-05-06T00:47:21.431Z,88.26
2017-05-06T00:48:42.930Z,88.40
2017-05-06T00:49:44.307Z,87.78
2017-05-06T00:51:05.767Z,88.11
2017-05-06T00:52:07.225Z,88.59
2017-05-06T00:53:28.646Z,88.30
2017-05-06T00:54:30.037Z,87.73
2017-05-06T00:55:51.541Z,88.59
2017-05-06T00:56:52.936Z,88.40
2017-05-06T00:58:14.388Z,88.35
2017-05-06T00:59:15.777Z,88.40
2017-05-06T01:00:37.238Z,87.82
2017-05-06T01:01:38.621Z,87.87
2017-05-06T01:03:00.125Z,87.82
2017-05-06T01:04:01.513Z,88.59
2017-05-06T01:05:22.971Z,87.82
2017-05-06T01:06:24.360Z,87.92
2017-05-06T01:07:45.820Z,88.40
2017-05-06T01:08:47.202Z,88.68
2017-05-06T01:10:08.697Z,88.30
2017-05-06T01:11:10.083Z,88.20
2017-05-06T01:12:31.550Z,88.40
2017-05-06T01:13:32.935Z,87.82
2017-05-06T01:14:54.395Z,88.01
2017-05-06T01:15:55.778Z,88.11
2017-05-06T01:17:17.289Z,87.63
2017-05-06T01:18:18.675Z,87.82
2017-05-06T01:19:40.136Z,88.59
2017-05-06T01:20:41.518Z,88.30
2017-05-06T01:22:02.983Z,88.30
2017-05-06T01:23:04.365Z,88.49
2017-05-06T01:24:28.404Z,88.40
2017-05-06T02:54:52.748Z,91.31
2017-05-06T02:55:54.126Z,90.98
2017-05-06T02:57:15.585Z,90.98
2017-05-06T02:58:16.965Z,91.02
2017-05-06T02:59:38.424Z,91.21
2017-05-06T03:00:39.804Z,91.31
2017-05-06T03:02:01.301Z,91.12
2017-05-06T03:03:02.679Z,91.12
2017-05-06T03:04:24.136Z,91.31
2017-05-06T03:05:25.516Z,90.83
2017-05-06T03:06:46.979Z,90.93
2017-05-06T03:07:48.360Z,91.02
2017-05-06T03:09:09.843Z,90.17
2017-05-06T03:10:11.223Z,90.36
2017-05-06T03:11:32.683Z,90.45
2017-05-06T03:12:34.065Z,90.55
2017-05-06T03:13:55.555Z,90.36
2017-05-06T03:14:56.909Z,90.36
2017-05-06T03:16:18.398Z,90.17
2017-05-06T03:17:19.777Z,90.26
2017-05-06T03:18:41.237Z,90.36
2017-05-06T03:19:42.619Z,90.17
2017-05-06T03:21:04.085Z,89.97
2017-05-06T03:22:05.462Z,89.97
2017-05-06T03:23:26.954Z,89.69
2017-05-06T03:24:28.333Z,89.78
2017-05-06T03:25:49.794Z,89.78
2017-05-06T03:26:51.176Z,90.07
2017-05-06T03:28:12.638Z,89.78
2017-05-06T03:29:14.021Z,89.21
2017-05-06T03:30:35.509Z,89.78
2017-05-06T03:31:36.890Z,89.50
2017-05-06T03:32:58.350Z,89.78
2017-05-06T03:33:59.732Z,89.54
2017-05-06T03:35:21.194Z,89.45
2017-05-06T03:36:22.577Z,89.35
2017-05-06T03:37:44.078Z,89.45
2017-05-06T03:38:45.461Z,89.64
2017-05-06T03:40:06.925Z,88.92
2017-05-06T03:41:08.308Z,89.16
2017-05-06T03:42:29.772Z,89.16
2017-05-06T03:43:31.156Z,89.45
2017-05-06T03:44:52.651Z,89.35
2017-05-06T03:45:54.034Z,89.25
2017-05-06T03:47:15.496Z,88.49
2017-05-06T03:48:16.879Z,88.78
2017-05-06T03:49:38.371Z,88.78
2017-05-06T03:50:39.728Z,88.59
2017-05-06T03:52:01.222Z,88.78
2017-05-06T03:53:02.604Z,88.68
2017-05-06T03:54:24.070Z,88.97
2017-05-06T03:55:25.453Z,88.87
2017-05-06T03:56:46.920Z,88.59
2017-05-06T03:57:48.305Z,88.78
2017-05-06T03:59:09.798Z,88.40
2017-05-06T04:00:11.185Z,88.30
2017-05-06T04:01:32.649Z,88.30
2017-05-06T04:02:34.032Z,88.40
2017-05-06T04:03:55.495Z,88.49
2017-05-06T04:04:56.881Z,88.59
2017-05-06T04:06:18.378Z,88.40
2017-05-06T04:07:19.759Z,88.30
2017-05-06T04:08:41.223Z,87.63
2017-05-06T04:09:42.608Z,88.11
2017-05-06T04:11:04.072Z,88.20
2017-05-06T04:12:05.458Z,88.11
2017-05-06T04:13:26.953Z,88.01
2017-05-06T04:14:28.337Z,88.11
2017-05-06T04:15:49.800Z,88.11
2017-05-06T04:16:51.185Z,87.92
2017-05-06T04:18:12.648Z,88.11
2017-05-06T04:19:14.035Z,87.82
2017-05-06T04:20:35.532Z,87.92
2017-05-06T04:21:36.911Z,88.11
2017-05-06T04:22:58.378Z,88.11
2017-05-06T04:23:59.762Z,87.73
2017-05-06T04:25:21.230Z,88.20
2017-05-06T04:26:22.615Z,87.92
2017-05-06T04:27:44.118Z,88.11
2017-05-06T04:28:45.506Z,87.96
2017-05-06T04:30:06.969Z,88.01
2017-05-06T04:31:08.354Z,88.11
2017-05-06T04:32:29.819Z,87.48
2017-05-06T04:33:31.206Z,87.77
2017-05-06T04:34:52.700Z,87.44
2017-05-06T04:35:54.083Z,87.68
2017-05-06T04:37:15.552Z,87.77
2017-05-06T04:38:16.934Z,87.77
2017-05-06T04:39:38.401Z,87.96
2017-05-06T04:40:39.786Z,87.20
2017-05-06T04:42:01.275Z,87.01
2017-05-06T04:43:02.657Z,87.20
2017-05-06T04:44:24.123Z,87.20
2017-05-06T04:45:25.510Z,87.29
2017-05-06T04:46:46.984Z,86.63
2017-05-06T04:47:48.363Z,86.82
2017-05-06T04:49:09.857Z,86.24
2017-05-06T04:50:11.241Z,86.72
2017-05-06T04:51:32.708Z,85.67
2017-05-06T04:52:34.094Z,85.48
2017-05-06T04:53:55.562Z,85.14
2017-05-06T04:54:56.947Z,85.42
2017-05-06T04:56:18.439Z,85.05
2017-05-06T04:57:19.825Z,85.05
2017-05-06T04:58:41.287Z,85.14
2017-05-06T04:59:42.673Z,85.33
2017-05-06T05:01:04.140Z,85.19
2017-05-06T05:02:05.525Z,85.33
2017-05-06T05:03:27.022Z,85.33
2017-05-06T05:04:28.404Z,85.05
2017-05-06T05:05:49.872Z,85.42
2017-05-06T05:06:51.258Z,85.14
2017-05-06T05:08:12.723Z,84.76
2017-05-06T05:09:14.111Z,84.85
2017-05-06T05:10:35.605Z,85.14
2017-05-06T05:11:36.990Z,85.05
2017-05-06T05:12:58.453Z,85.14
2017-05-06T05:13:59.840Z,84.76
2017-05-06T05:15:21.304Z,84.85
2017-05-06T05:16:22.693Z,84.66
2017-05-06T05:17:44.187Z,84.19
2017-05-06T05:18:45.576Z,84.19
2017-05-06T05:20:07.046Z,84.37
2017-05-06T05:21:08.427Z,83.90
2017-05-06T05:22:29.894Z,83.90
2017-05-06T05:23:31.280Z,83.99
2017-05-06T05:24:52.776Z,83.90
2017-05-06T05:25:54.161Z,84.19
2017-05-06T05:27:15.626Z,83.70
2017-05-06T05:28:17.015Z,84.19
2017-05-06T05:29:38.478Z,83.42
2017-05-06T05:30:39.865Z,83.70
2017-05-06T05:32:01.363Z,83.33
2017-05-06T05:33:02.749Z,83.61
2017-05-06T05:34:24.212Z,83.65
2017-05-06T05:35:25.599Z,83.27
2017-05-06T05:36:47.066Z,83.37
2017-05-06T05:37:48.453Z,82.89
2017-05-06T05:39:09.961Z,82.89
2017-05-06T05:40:11.348Z,82.79
2017-05-06T05:41:32.812Z,83.08
2017-05-06T05:42:34.199Z,82.89
2017-05-06T05:43:55.665Z,82.89
2017-05-06T05:44:57.056Z,83.08
2017-05-06T05:46:18.548Z,82.89
2017-05-06T05:47:19.934Z,83.17
2017-05-06T05:48:41.401Z,82.89
2017-05-06T05:49:42.789Z,83.04
2017-05-06T05:51:04.252Z,83.33
2017-05-06T05:52:05.640Z,83.33
2017-05-06T05:53:27.137Z,82.98
2017-05-06T05:54:28.521Z,82.89
2017-05-06T05:55:49.985Z,83.08
2017-05-06T05:56:51.372Z,83.17
2017-05-06T05:58:12.839Z,83.08
2017-05-06T05:59:14.223Z,82.98
2017-05-06T06:00:35.718Z,82.70
2017-05-06T06:01:37.104Z,82.51
2017-05-06T06:02:58.567Z,82.41
2017-05-06T06:03:59.954Z,82.51
2017-05-06T06:05:21.419Z,82.51
2017-05-06T06:06:22.807Z,82.41
2017-05-06T06:07:44.301Z,82.41
2017-05-06T06:08:45.686Z,82.22
2017-05-06T06:10:07.153Z,82.51
2017-05-06T06:11:08.541Z,82.12
2017-05-06T06:12:30.011Z,82.22
2017-05-06T06:13:31.397Z,81.40
2017-05-06T06:14:52.889Z,81.40
2017-05-06T06:15:54.279Z,81.40
2017-05-06T06:17:15.741Z,81.02
2017-05-06T06:18:17.133Z,80.73
2017-05-06T06:19:38.598Z,80.35
2017-05-06T06:20:40.072Z,80.00
2017-05-06T06:22:01.570Z,79.91
2017-05-06T06:23:02.957Z,79.24
2017-05-06T06:24:24.427Z,79.24
2017-05-06T06:25:25.828Z,79.05
2017-05-06T06:26:47.291Z,78.47
2017-05-06T06:27:48.678Z,78.38
2017-05-06T06:29:10.174Z,78.57
2017-05-06T06:30:11.562Z,78.57
2017-05-06T06:31:33.029Z,78.09
2017-05-06T06:32:34.417Z,77.55
2017-05-06T06:33:55.883Z,78.13
2017-05-06T06:34:57.275Z,78.03
2017-05-06T06:36:18.768Z,78.13
2017-05-06T06:37:20.153Z,78.13
2017-05-06T06:38:41.618Z,77.70
2017-05-06T06:39:43.006Z,77.65
2017-05-06T06:41:04.483Z,77.75
2017-05-06T06:42:05.866Z,77.84
2017-05-06T06:43:27.362Z,77.46
2017-05-06T06:44:28.747Z,77.36
2017-05-06T06:45:50.214Z,76.60
2017-05-06T06:46:51.601Z,76.60
2017-05-06T06:48:13.069Z,77.08
2017-05-06T06:49:14.458Z,76.98
2017-05-06T06:50:36.100Z,76.60
2017-05-06T06:51:37.487Z,77.08
2017-05-06T06:52:58.953Z,76.60
2017-05-06T06:54:00.342Z,76.12
2017-05-06T06:55:21.821Z,75.93
2017-05-06T06:56:23.214Z,76.21
2017-05-06T06:57:44.708Z,75.68
2017-05-06T06:58:46.096Z,75.48
2017-05-06T07:00:07.567Z,74.91
2017-05-06T07:01:08.952Z,74.62
2017-05-06T07:02:30.454Z,74.62
2017-05-06T07:03:31.843Z,74.82
2017-05-06T07:04:53.340Z,74.62
2017-05-06T07:05:54.726Z,74.43
2017-05-06T07:07:16.213Z,74.82
2017-05-06T07:08:17.599Z,74.91
2017-05-06T07:09:39.067Z,74.82
2017-05-06T07:10:40.578Z,75.01
2017-05-06T07:12:02.055Z,74.52
2017-05-06T07:13:03.441Z,74.43
2017-05-06T07:14:24.907Z,74.43
2017-05-06T07:15:26.296Z,74.52
2017-05-06T07:16:47.763Z,74.43
2017-05-06T07:17:49.153Z,73.99
2017-05-06T07:19:10.650Z,74.08
2017-05-06T07:20:12.036Z,74.15
2017-05-06T07:21:33.510Z,74.05
2017-05-06T07:22:34.896Z,74.15
2017-05-06T07:23:56.363Z,74.08
2017-05-06T07:24:57.751Z,73.61
2017-05-06T07:26:19.252Z,72.94
2017-05-06T07:27:20.642Z,71.72
2017-05-06T07:28:42.113Z,70.76
2017-05-06T07:29:43.518Z,69.65
2017-05-06T07:31:04.991Z,68.02
2017-05-06T07:32:06.613Z,67.29
2017-05-06T07:33:28.110Z,66.80
2017-05-06T07:34:29.498Z,65.88
2017-05-06T07:35:50.968Z,65.53
2017-05-06T07:36:52.357Z,64.28
2017-05-06T07:38:13.829Z,63.83
2017-05-06T07:39:15.219Z,62.77
2017-05-06T07:40:36.717Z,62.68
2017-05-06T07:41:38.107Z,62.96
2017-05-06T07:42:59.578Z,62.48
2017-05-06T07:44:00.971Z,62.19
2017-05-06T07:45:22.438Z,61.71
2017-05-06T07:46:23.828Z,61.61
2017-05-06T07:47:45.341Z,61.26
2017-05-06T07:48:46.732Z,60.97
2017-05-06T07:50:08.201Z,60.69
2017-05-06T07:51:09.592Z,60.14
2017-05-06T07:52:31.065Z,60.24
2017-05-06T07:53:32.455Z,59.94
2017-05-06T07:54:53.953Z,59.27
2017-05-06T07:55:55.342Z,58.82
2017-05-06T07:57:16.812Z,58.05
2017-05-06T07:58:18.204Z,57.12
2017-05-06T07:59:39.677Z,55.89
2017-05-06T08:00:41.068Z,55.05
2017-05-06T08:02:02.568Z,53.08
2017-05-06T08:03:03.958Z,51.49
2017-05-06T08:04:25.430Z,49.10
2017-05-06T08:05:26.823Z,47.84
2017-05-06T08:06:48.296Z,47.96
2017-05-06T08:07:49.687Z,48.06
2017-05-06T08:09:11.187Z,47.02
2017-05-06T08:10:12.580Z,46.56
2017-05-06T08:11:34.054Z,45.68
2017-05-06T08:12:35.448Z,45.40
2017-05-06T08:13:56.922Z,45.30
2017-05-06T08:14:58.315Z,45.49
2017-05-06T08:16:19.815Z,45.78
2017-05-06T08:17:21.207Z,46.08
2017-05-06T08:18:42.725Z,45.40
2017-05-06T08:19:44.121Z,44.79
2017-05-06T08:21:05.598Z,44.60
2017-05-06T08:22:06.993Z,43.85
2017-05-06T08:23:28.505Z,43.38
2017-05-06T08:24:29.903Z,41.86
2017-05-06T08:25:51.376Z,40.09
2017-05-06T08:26:52.772Z,36.59
2017-05-06T08:28:14.250Z,30.97
2017-05-06T08:29:15.643Z,30.77
2017-05-06T08:30:37.156Z,28.69
2017-05-06T08:31:38.553Z,22.88
2017-05-06T08:33:00.033Z,21.76
2017-05-06T08:34:01.431Z,22.78
2017-05-06T08:35:22.913Z,23.09
2017-05-06T08:36:24.312Z,23.65
2017-05-06T08:37:45.828Z,24.88
2017-05-06T08:38:47.230Z,25.09
2017-05-06T08:40:08.711Z,24.03
2017-05-06T08:41:10.110Z,23.63
2017-05-06T08:42:31.593Z,23.74
2017-05-06T08:43:32.989Z,23.44
2017-05-06T08:44:54.494Z,22.20
2017-05-06T08:45:55.889Z,21.63
2017-05-06T08:47:17.375Z,20.07
2017-05-06T08:48:18.766Z,20.38
2017-05-06T08:49:40.247Z,20.75
2017-05-06T08:50:41.641Z,22.00
2017-05-06T08:52:03.158Z,22.97
2017-05-06T08:53:04.556Z,21.26
2017-05-06T08:54:26.036Z,19.89
2017-05-06T08:55:27.434Z,18.82
2017-05-06T08:56:48.913Z,16.41
2017-05-06T08:57:50.309Z,15.47
2017-05-06T08:59:11.895Z,12.73
2017-05-06T09:00:13.291Z,12.23
2017-05-06T09:01:34.773Z,11.93
2017-05-06T09:02:36.176Z,10.85
2017-05-06T09:03:57.675Z,13.49
2017-05-06T09:04:59.075Z,15.53
2017-05-06T09:06:20.591Z,17.16
2017-05-06T09:07:21.992Z,18.61
2017-05-06T09:08:43.476Z,18.49
2017-05-06T09:09:44.876Z,18.88
2017-05-06T09:11:06.358Z,20.12
2017-05-06T09:12:07.760Z,20.79
2017-05-06T09:13:29.274Z,21.66
2017-05-06T09:14:30.667Z,21.49
2017-05-06T09:15:52.157Z,20.51
2017-05-06T09:16:53.555Z,20.04
2017-05-06T09:18:15.036Z,19.75
2017-05-06T09:19:16.482Z,20.42
2017-05-06T09:20:37.995Z,21.00
2017-05-06T09:21:39.395Z,20.83
2017-05-06T09:23:00.878Z,15.84
2017-05-06T09:24:02.280Z,13.30
2017-05-06T09:25:23.762Z,11.53
2017-05-06T09:26:25.163Z,11.54
2017-05-06T09:27:46.669Z,12.10
2017-05-06T09:28:48.072Z,13.18
2017-05-06T09:30:09.557Z,13.65
2017-05-06T09:31:10.957Z,14.51
2017-05-06T09:32:32.442Z,15.48
2017-05-06T09:33:33.842Z,16.83
2017-05-06T09:34:55.371Z,17.88
2017-05-06T09:35:56.769Z,18.68
2017-05-06T09:37:18.254Z,17.44
2017-05-06T09:38:19.658Z,16.09
2017-05-06T09:39:41.140Z,14.36
2017-05-06T09:40:42.542Z,12.82
2017-05-06T09:42:04.050Z,9.11
2017-05-06T09:43:06.619Z,6.93
2017-05-06T09:44:28.108Z,5.05
2017-05-06T09:45:29.509Z,3.64
2017-05-06T09:46:50.993Z,2.73
2017-05-06T09:47:52.396Z,2.23
2017-05-06T09:49:13.913Z,0.71
2017-05-06T09:50:15.318Z,0.31
2017-05-06T09:51:36.811Z,0.00
2017-05-06T09:52:38.215Z,0.00
2017-05-06T09:53:59.709Z,0.00
2017-05-06T09:55:01.113Z,0.00
2017-05-06T09:56:22.633Z,0.00
2017-05-06T09:57:24.083Z,0.00
2017-05-06T09:58:45.578Z,0.00
2017-05-06T09:59:46.988Z,0.00
2017-05-06T10:01:08.482Z,0.71
2017-05-06T10:02:09.888Z,0.00
2017-05-06T10:03:31.411Z,0.00
2017-05-06T10:04:32.927Z,0.00
2017-05-06T10:05:54.427Z,0.00
2017-05-06T10:06:55.835Z,0.00
2017-05-06T10:08:17.332Z,0.00
2017-05-06T10:09:18.740Z,0.00
2017-05-06T10:10:40.268Z,0.00
2017-05-06T10:11:41.676Z,0.00
2017-05-06T10:13:03.183Z,0.00
2017-05-06T10:14:04.617Z,0.00
2017-05-06T11:35:03.240Z,58.51
2017-05-06T11:36:04.620Z,59.09
2017-05-06T11:37:26.080Z,58.32
2017-05-06T11:38:27.501Z,58.42
2017-05-06T11:39:48.964Z,58.89
2017-05-06T11:40:50.348Z,59.38
2017-05-06T11:42:11.852Z,58.89
2017-05-06T11:43:13.239Z,59.09
2017-05-06T11:44:34.700Z,58.99
2017-05-06T11:45:36.094Z,59.19
2017-05-06T11:46:57.554Z,59.19
2017-05-06T11:47:58.937Z,58.99
2017-05-06T11:49:20.429Z,58.89
2017-05-06T11:50:21.811Z,58.96
2017-05-06T11:51:43.276Z,59.44
2017-05-06T11:52:44.660Z,59.44
2017-05-06T11:54:06.124Z,59.92
2017-05-06T11:55:07.508Z,60.02
2017-05-06T11:56:29.013Z,59.92
2017-05-06T11:57:30.402Z,60.02
2017-05-06T11:58:51.864Z,59.92
2017-05-06T11:59:53.245Z,60.11
2017-05-06T12:01:14.709Z,60.60
2017-05-06T12:02:16.094Z,60.60
2017-05-06T12:03:37.588Z,60.11
2017-05-06T12:04:38.970Z,59.83
2017-05-06T12:06:00.465Z,59.73
2017-05-06T12:07:01.848Z,59.83
2017-05-06T12:08:23.310Z,60.11
2017-05-06T12:09:24.695Z,59.92
2017-05-06T12:10:46.207Z,60.02
2017-05-06T12:11:47.654Z,60.11
2017-05-06T12:13:09.269Z,59.92
2017-05-06T12:14:10.740Z,60.21
2017-05-06T12:15:32.384Z,60.21
2017-05-06T12:16:33.866Z,60.11
2017-05-06T12:17:55.357Z,60.02
2017-05-06T12:18:56.737Z,59.92
2017-05-06T12:20:18.289Z,59.64
2017-05-06T12:21:19.671Z,59.92
2017-05-06T12:22:41.139Z,59.92
2017-05-06T12:23:42.521Z,60.02
2017-05-06T12:25:04.015Z,59.73
2017-05-06T12:26:05.400Z,59.83
2017-05-06T12:27:26.863Z,59.64
2017-05-06T12:28:28.249Z,59.54
2017-05-06T12:29:49.715Z,59.73
2017-05-06T12:30:51.098Z,59.34
2017-05-06T12:32:12.594Z,59.34
2017-05-06T12:33:13.976Z,59.54
2017-05-06T12:34:35.436Z,59.44
2017-05-06T12:35:36.825Z,59.54
2017-05-06T12:36:58.333Z,59.44
2017-05-06T12:37:59.724Z,59.64
2017-05-06T12:39:21.250Z,59.34
2017-05-06T12:40:22.634Z,59.64
2017-05-06T12:41:44.096Z,59.64
2017-05-06T12:42:45.519Z,59.64
2017-05-06T12:44:07.476Z,59.61
2017-05-06T12:45:09.101Z,59.54
2017-05-06T12:46:30.590Z,59.54
2017-05-06T12:47:31.971Z,59.06
2017-05-06T12:48:53.434Z,59.16
2017-05-06T12:49:54.817Z,59.16
2017-05-06T12:51:16.284Z,59.25
2017-05-06T12:52:17.668Z,59.06
2017-05-06T12:53:39.164Z,58.87
2017-05-06T12:54:40.542Z,58.87
2017-05-06T12:56:02.001Z,59.25
2017-05-06T12:57:03.384Z,59.16
2017-05-06T12:58:24.848Z,59.16
2017-05-06T12:59:26.232Z,59.06
2017-05-06T13:00:47.734Z,59.06
2017-05-06T13:01:49.118Z,59.34
2017-05-06T13:03:10.582Z,59.16
2017-05-06T13:04:11.967Z,59.06
2017-05-06T13:05:33.431Z,59.16
2017-05-06T13:06:34.815Z,59.16
2017-05-06T13:07:56.306Z,58.96
2017-05-06T13:08:57.692Z,58.96
2017-05-06T13:10:19.152Z,58.96
2017-05-06T13:11:20.574Z,59.06
2017-05-06T13:12:42.039Z,58.87
2017-05-06T13:13:43.421Z,59.16
2017-05-06T13:15:04.913Z,58.87
2017-05-06T13:16:06.293Z,58.87
2017-05-06T13:17:27.753Z,58.96
2017-05-06T13:18:29.138Z,58.96
2017-05-06T13:19:50.603Z,59.06
2017-05-06T13:20:51.984Z,59.06
2017-05-06T13:22:13.621Z,58.87
2017-05-06T13:23:15.006Z,59.16
2017-05-06T13:24:36.466Z,59.16
2017-05-06T13:25:37.856Z,59.34
2017-05-06T13:26:59.312Z,59.34
2017-05-06T13:28:00.695Z,58.87
2017-05-06T13:29:22.195Z,58.58
2017-05-06T13:30:23.589Z,58.96
2017-05-06T13:31:45.065Z,58.48
2017-05-06T13:32:46.441Z,58.39
2017-05-06T13:34:07.903Z,58.48
2017-05-06T13:35:09.288Z,58.29
2017-05-06T13:36:30.784Z,58.48
2017-05-06T13:37:32.157Z,58.77
2017-05-06T13:38:53.626Z,58.58
2017-05-06T13:39:55.011Z,58.87
2017-05-06T13:41:16.475Z,58.87
2017-05-06T13:42:17.860Z,58.48
2017-05-06T13:43:39.356Z,58.67
2017-05-06T13:44:40.738Z,58.77
2017-05-06T13:46:02.202Z,58.29
2017-05-06T13:47:03.582Z,58.67
2017-05-06T13:48:25.046Z,58.77
2017-05-06T13:49:26.600Z,58.87
2017-05-06T13:50:48.095Z,58.20
2017-05-06T13:51:49.477Z,58.48
2017-05-06T13:53:10.936Z,58.48
2017-05-06T13:54:12.322Z,58.48
2017-05-06T13:55:33.789Z,58.29
2017-05-06T13:56:35.184Z,58.20
2017-05-06T13:57:56.680Z,58.39
2017-05-06T13:58:58.062Z,58.39
2017-05-06T14:00:19.523Z,58.10
2017-05-06T14:01:20.906Z,58.29
2017-05-06T14:02:42.397Z,58.48
2017-05-06T14:03:43.777Z,58.48
2017-05-06T14:05:05.284Z,58.67
2017-05-06T14:06:06.681Z,58.48
2017-05-06T14:07:28.132Z,58.87
2017-05-06T14:08:29.517Z,59.06
2017-05-06T14:09:50.983Z,58.87
2017-05-06T14:10:52.365Z,58.96
2017-05-06T14:12:13.904Z,59.64
2017-05-06T14:13:15.289Z,59.64
2017-05-06T14:14:36.748Z,59.34
2017-05-06T14:15:38.130Z,59.34
2017-05-06T14:16:59.593Z,59.34
2017-05-06T14:18:01.013Z,59.54
2017-05-06T14:19:22.507Z,59.83
2017-05-06T14:20:23.887Z,59.44
2017-05-06T14:21:45.350Z,58.99
2017-05-06T14:22:46.734Z,59.16
2017-05-06T14:24:08.197Z,59.25
2017-05-06T14:25:09.580Z,59.19
2017-05-06T14:26:31.085Z,59.09
2017-05-06T14:27:32.449Z,58.67
2017-05-06T14:28:53.908Z,59.16
2017-05-06T14:29:55.295Z,58.99
2017-05-06T14:31:16.753Z,59.09
2017-05-06T14:32:18.136Z,58.99
2017-05-06T14:33:39.639Z,58.96
2017-05-06T14:34:41.023Z,58.99
2017-05-06T14:36:02.481Z,58.99
2017-05-06T14:37:03.865Z,58.42
2017-05-06T14:38:25.326Z,58.42
2017-05-06T14:39:26.709Z,58.22
2017-05-06T14:40:48.200Z,58.70
2017-05-06T14:41:49.580Z,58.70
2017-05-06T14:43:11.044Z,59.09
2017-05-06T14:44:12.427Z,58.42
2017-05-06T14:45:33.892Z,58.32
2017-05-06T14:46:35.274Z,58.32
2017-05-06T14:47:56.787Z,59.09
2017-05-06T14:48:58.177Z,58.51
2017-05-06T14:50:19.636Z,59.19
2017-05-06T14:51:21.031Z,59.19
2017-05-06T14:52:42.492Z,59.09
2017-05-06T14:53:43.877Z,58.32
2017-05-06T14:55:05.366Z,58.06
2017-05-06T14:56:06.747Z,57.97
2017-05-06T14:57:28.211Z,57.87
2017-05-06T14:58:29.595Z,57.77
2017-05-06T14:59:51.058Z,57.87
2017-05-06T15:00:52.441Z,57.97
2017-05-06T15:02:13.933Z,57.68
2017-05-06T15:03:15.311Z,57.75
2017-05-06T15:04:36.771Z,57.77
2017-05-06T15:05:38.154Z,58.03
2017-05-06T15:06:59.625Z,57.75
2017-05-06T15:08:01.041Z,57.77
2017-05-06T15:09:22.994Z,57.87
2017-05-06T15:10:24.374Z,57.39
2017-05-06T15:11:45.834Z,57.00
2017-05-06T15:12:47.219Z,57.20
2017-05-06T15:14:08.682Z,57.39
2017-05-06T15:15:10.063Z,57.39
2017-05-06T15:16:31.550Z,57.39
2017-05-06T15:17:32.931Z,57.20
2017-05-06T15:18:54.392Z,57.48
2017-05-06T15:19:55.775Z,57.29
2017-05-06T15:21:17.236Z,57.29
2017-05-06T15:22:18.619Z,57.10
2017-05-06T15:23:40.107Z,57.10
2017-05-06T15:24:41.488Z,57.10
2017-05-06T15:26:02.949Z,57.20
2017-05-06T15:27:04.335Z,57.77
2017-05-06T15:28:25.810Z,57.68
2017-05-06T15:29:27.192Z,57.93
2017-05-06T15:30:48.677Z,57.84
2017-05-06T15:31:50.058Z,58.06
2017-05-06T15:35:26.023Z,0.00
2017-05-06T15:36:27.554Z,0.00
2017-05-06T15:37:49.492Z,0.00
2017-05-06T16:48:31.551Z,56.62
2017-05-06T16:49:33.078Z,56.23
2017-05-06T16:50:54.716Z,56.04
2017-05-06T16:51:56.245Z,56.04
2017-05-06T16:53:17.884Z,56.43
2017-05-06T16:54:19.409Z,56.04
2017-05-06T16:55:41.076Z,56.33
2017-05-06T16:56:42.604Z,56.43
2017-05-06T16:58:04.243Z,56.33
2017-05-06T16:59:05.773Z,56.62
2017-05-06T17:00:27.416Z,56.14
2017-05-06T17:01:28.945Z,56.62
2017-05-06T17:02:50.615Z,56.71
2017-05-06T17:03:52.143Z,56.62
2017-05-06T17:05:13.784Z,56.62
2017-05-06T17:06:15.312Z,56.71
2017-05-06T17:07:53.036Z,56.43
2017-05-06T17:08:54.568Z,57.20
2017-05-06T17:10:16.220Z,56.91
2017-05-06T18:18:29.813Z,57.68
2017-05-06T18:19:31.381Z,57.58
2017-05-06T18:55:26.348Z,77.30
2017-05-06T18:56:27.914Z,78.45
2017-05-06T18:57:49.625Z,78.89
2017-05-06T18:58:51.185Z,80.04
2017-05-06T19:00:12.889Z,79.90
2017-05-06T19:01:14.462Z,80.28
2017-05-06T19:02:36.692Z,81.24
2017-05-06T19:03:38.264Z,81.90
2017-05-06T19:05:00.504Z,82.67
2017-05-06T19:06:02.055Z,82.86
2017-05-06T19:07:24.491Z,83.53
2017-05-06T19:08:26.134Z,83.34
2017-05-06T19:09:48.490Z,83.62
2017-05-06T19:10:50.166Z,83.43
2017-05-06T19:12:13.589Z,83.43
2017-05-06T19:13:15.187Z,83.53
2017-05-06T19:14:37.463Z,83.53
2017-05-06T19:15:39.087Z,83.43
2017-05-06T19:17:01.459Z,83.72
2017-05-06T19:18:03.127Z,83.72
2017-05-06T19:19:25.432Z,84.10
2017-05-06T19:20:27.029Z,83.72
2017-05-06T19:21:50.327Z,83.81
2017-05-06T19:22:52.085Z,84.20
2017-05-06T19:24:14.509Z,84.39
2017-05-06T19:25:16.207Z,84.06
2017-05-06T19:26:38.781Z,84.58
2017-05-06T19:27:40.427Z,84.20
2017-05-06T19:29:02.778Z,84.00
2017-05-06T19:30:04.446Z,84.96
2017-05-06T19:31:27.834Z,84.67
2017-05-06T19:32:29.488Z,84.34
2017-05-06T19:33:51.795Z,85.15
2017-05-06T19:34:53.464Z,84.86
2017-05-06T19:36:15.790Z,84.92
2017-05-06T19:37:17.505Z,84.82
2017-05-06T19:38:39.946Z,85.01
2017-05-06T19:39:41.536Z,85.30
2017-05-06T19:41:04.903Z,85.58
2017-05-06T19:42:06.507Z,85.68
2017-05-06T19:43:28.816Z,85.58
2017-05-06T19:44:30.390Z,85.77
2017-05-06T19:45:52.797Z,86.16
2017-05-06T19:46:54.401Z,85.97
2017-05-06T19:48:16.748Z,86.25
2017-05-06T19:49:18.613Z,86.44
2017-05-06T19:50:41.924Z,86.06
2017-05-06T19:51:43.633Z,85.87
2017-05-06T19:53:07.162Z,86.54
2017-05-06T19:54:08.803Z,86.54
2017-05-06T19:55:32.789Z,86.63
2017-05-06T19:56:34.393Z,86.16
2017-05-06T19:57:56.843Z,86.16
2017-05-06T19:58:58.645Z,86.35
2017-05-06T20:00:21.305Z,87.87
2017-05-06T20:01:23.060Z,87.68
2017-05-06T20:02:45.344Z,87.68
2017-05-06T20:03:47.127Z,87.40
2017-05-06T20:05:10.480Z,87.97
2017-05-06T20:06:12.226Z,87.78
2017-05-06T20:07:35.529Z,87.78
2017-05-06T20:08:37.272Z,87.64
2017-05-06T20:09:59.761Z,87.74
2017-05-06T20:11:01.547Z,88.02
2017-05-06T20:12:23.896Z,87.64
2017-05-06T20:13:25.438Z,88.12
2017-05-06T20:14:47.185Z,88.50
2017-05-06T20:15:48.749Z,89.02
2017-05-06T20:17:10.951Z,88.35
2017-05-06T20:18:12.516Z,88.45
2017-05-06T20:19:34.225Z,88.02
2017-05-06T20:20:35.788Z,88.54
2017-05-06T20:21:57.562Z,88.35
2017-05-06T20:22:59.094Z,88.31
2017-05-06T20:24:21.298Z,87.87
2017-05-06T20:25:23.015Z,88.12
2017-05-06T20:26:45.272Z,87.26
2017-05-06T20:27:46.834Z,87.74
2017-05-06T20:29:08.571Z,87.45
2017-05-06T20:30:10.138Z,88.12
2017-05-06T20:31:31.852Z,88.59
2017-05-06T20:32:33.421Z,88.40
2017-05-06T20:33:55.643Z,88.02
2017-05-06T20:34:57.203Z,88.40
2017-05-06T20:36:19.504Z,88.69
2017-05-06T20:37:21.065Z,88.78
2017-05-06T20:38:43.282Z,89.07
2017-05-06T20:39:44.838Z,89.26
2017-05-06T20:41:07.056Z,88.98
2017-05-06T20:42:08.617Z,88.98
2017-05-06T20:43:30.858Z,89.26
2017-05-06T20:44:32.428Z,88.88
2017-05-06T20:45:54.140Z,89.54
2017-05-06T20:46:55.708Z,89.64
2017-05-06T20:48:17.928Z,89.79
2017-05-06T20:49:19.498Z,89.74
2017-05-06T20:50:41.725Z,88.64
2017-05-06T20:51:43.291Z,89.03
2017-05-06T20:53:05.499Z,88.84
2017-05-06T20:54:07.065Z,89.03
2017-05-06T20:55:29.281Z,89.40
2017-05-06T20:56:30.854Z,89.89
2017-05-06T20:57:53.087Z,90.45
2017-05-06T20:58:54.656Z,90.84
2017-05-06T21:00:16.861Z,91.31
2017-05-06T21:01:18.439Z,90.74
2017-05-06T21:02:40.637Z,91.03
2017-05-06T21:03:42.196Z,91.22
2017-05-06T21:05:04.436Z,91.79